Search for airport 
image banner adimage banner adimage banner ad
image banner ad

PN18 - Fairview Evergreen

Located in Fairview, United States

ICAO - PN18, IATA -

Data provided by Airmate  

General information

Coordinates: N42°1'38" W80°14'37"
Elevation is 805 feet MSL.
Magnetic variation is -08° East
View others Airports in Pennsylvania

Operational data

Special qualification required
Current time UTC:
Current local time:
Weather at : KERI - Erie Intl/Tom Ridge Field ( 8 km )
METAR: KERI 091151Z 15007KT 10SM CLR 06/02 A3004 RMK AO2 SLP178 70012 T00560017 10056 20033 58008
TAF: KERI 091126Z 0912/1012 17005KT P6SM BKN200 FM091600 14006KT 6SM -RA OVC035 FM091800 10008KT 5SM -RA OVC025 FM092100 05014G22KT 2SM RA OVC008 FM100300 02012G20KT P6SM OVC008 FM100700 35007KT P6SM BKN025
View NOTAMs / SUP AIP / TFR affecting this airport [VIEW]
Communications frequencies: [VIEW]

Runways:

RWY identifierQFULength (ft)Width (ft)SurfaceLDA (ft)
081840100GRASS
261840100GRASS

Airport contact information

Address: Fairview United States

Satellite view of PN18